sensor_id;sensor_type;location;lat;lon;timestamp;temperature;humidity
40123;DHT22;25832;45.490;4.912;2023-11-21T00:00:33;6.90;99.90
40123;DHT22;25832;45.490;4.912;2023-11-21T00:02:59;6.80;99.90
40123;DHT22;25832;45.490;4.912;2023-11-21T00:05:24;6.80;99.90
40123;DHT22;25832;45.490;4.912;2023-11-21T00:07:50;6.80;99.90
40123;DHT22;25832;45.490;4.912;2023-11-21T00:10:16;6.60;99.90
40123;DHT22;25832;45.490;4.912;2023-11-21T00:12:42;6.50;99.90
40123;DHT22;25832;45.490;4.912;2023-11-21T00:15:08;6.50;99.90
40123;DHT22;25832;45.490;4.912;2023-11-21T00:17:38;6.40;99.90
40123;DHT22;25832;45.490;4.912;2023-11-21T00:20:05;6.40;99.90
40123;DHT22;25832;45.490;4.912;2023-11-21T00:22:35;6.40;99.90
40123;DHT22;25832;45.490;4.912;2023-11-21T00:25:01;6.40;99.90
40123;DHT22;25832;45.490;4.912;2023-11-21T00:27:29;6.40;99.90
40123;DHT22;25832;45.490;4.912;2023-11-21T00:29:55;6.40;99.90
40123;DHT22;25832;45.490;4.912;2023-11-21T00:32:20;6.30;99.90
40123;DHT22;25832;45.490;4.912;2023-11-21T00:34:46;6.30;99.90
40123;DHT22;25832;45.490;4.912;2023-11-21T00:37:12;6.20;99.90
40123;DHT22;25832;45.490;4.912;2023-11-21T00:39:37;6.20;99.90
40123;DHT22;25832;45.490;4.912;2023-11-21T00:42:03;6.00;99.90
40123;DHT22;25832;45.490;4.912;2023-11-21T00:44:30;6.00;99.90
40123;DHT22;25832;45.490;4.912;2023-11-21T00:46:56;6.00;99.90
40123;DHT22;25832;45.490;4.912;2023-11-21T00:49:21;6.00;99.90
40123;DHT22;25832;45.490;4.912;2023-11-21T00:51:47;5.90;99.90
40123;DHT22;25832;45.490;4.912;2023-11-21T00:54:12;5.80;99.90
40123;DHT22;25832;45.490;4.912;2023-11-21T00:56:38;5.80;99.90
40123;DHT22;25832;45.490;4.912;2023-11-21T00:59:05;5.80;99.90
40123;DHT22;25832;45.490;4.912;2023-11-21T01:01:31;5.80;99.90
40123;DHT22;25832;45.490;4.912;2023-11-21T01:03:56;5.70;99.90
40123;DHT22;25832;45.490;4.912;2023-11-21T01:06:22;5.60;99.90
40123;DHT22;25832;45.490;4.912;2023-11-21T01:08:48;5.60;99.90
40123;DHT22;25832;45.490;4.912;2023-11-21T01:11:13;5.50;99.90
40123;DHT22;25832;45.490;4.912;2023-11-21T01:13:39;5.50;99.90
40123;DHT22;25832;45.490;4.912;2023-11-21T01:16:06;5.60;99.90
40123;DHT22;25832;45.490;4.912;2023-11-21T01:18:32;5.60;99.90
40123;DHT22;25832;45.490;4.912;2023-11-21T01:20:58;5.70;99.90
40123;DHT22;25832;45.490;4.912;2023-11-21T01:23:26;5.70;99.90
40123;DHT22;25832;45.490;4.912;2023-11-21T01:25:52;5.80;99.90
40123;DHT22;25832;45.490;4.912;2023-11-21T01:28:18;5.90;99.90
40123;DHT22;25832;45.490;4.912;2023-11-21T01:30:45;6.00;99.90
40123;DHT22;25832;45.490;4.912;2023-11-21T01:33:11;6.10;99.90
40123;DHT22;25832;45.490;4.912;2023-11-21T01:35:37;6.20;99.90
40123;DHT22;25832;45.490;4.912;2023-11-21T01:38:02;6.40;99.90
40123;DHT22;25832;45.490;4.912;2023-11-21T01:40:29;6.50;99.90
40123;DHT22;25832;45.490;4.912;2023-11-21T01:42:55;6.50;99.90
40123;DHT22;25832;45.490;4.912;2023-11-21T01:45:21;6.60;99.90
40123;DHT22;25832;45.490;4.912;2023-11-21T01:47:47;6.70;99.90
40123;DHT22;25832;45.490;4.912;2023-11-21T01:50:16;6.80;99.90
40123;DHT22;25832;45.490;4.912;2023-11-21T01:52:46;6.80;99.90
40123;DHT22;25832;45.490;4.912;2023-11-21T01:55:15;6.80;99.90
40123;DHT22;25832;45.490;4.912;2023-11-21T01:57:43;6.90;99.90
40123;DHT22;25832;45.490;4.912;2023-11-21T02:00:09;6.90;99.90
40123;DHT22;25832;45.490;4.912;2023-11-21T02:02:48;7.00;99.90
40123;DHT22;25832;45.490;4.912;2023-11-21T02:05:18;7.00;99.90
40123;DHT22;25832;45.490;4.912;2023-11-21T02:07:44;7.00;99.90
40123;DHT22;25832;45.490;4.912;2023-11-21T02:10:11;7.00;99.90
40123;DHT22;25832;45.490;4.912;2023-11-21T02:12:57;7.00;99.90
40123;DHT22;25832;45.490;4.912;2023-11-21T02:15:24;7.10;99.90
40123;DHT22;25832;45.490;4.912;2023-11-21T02:17:52;7.10;99.90
40123;DHT22;25832;45.490;4.912;2023-11-21T02:20:20;7.10;99.90
40123;DHT22;25832;45.490;4.912;2023-11-21T02:22:50;7.10;99.90
40123;DHT22;25832;45.490;4.912;2023-11-21T02:25:21;7.10;99.90
40123;DHT22;25832;45.490;4.912;2023-11-21T02:27:48;7.20;99.90
40123;DHT22;25832;45.490;4.912;2023-11-21T02:30:15;7.20;99.90
40123;DHT22;25832;45.490;4.912;2023-11-21T02:32:41;7.20;99.90
40123;DHT22;25832;45.490;4.912;2023-11-21T02:35:08;7.20;99.90
40123;DHT22;25832;45.490;4.912;2023-11-21T02:37:34;7.10;99.90
40123;DHT22;25832;45.490;4.912;2023-11-21T02:40:01;7.10;99.90
40123;DHT22;25832;45.490;4.912;2023-11-21T02:42:29;7.10;99.90
40123;DHT22;25832;45.490;4.912;2023-11-21T02:44:55;7.20;99.90
40123;DHT22;25832;45.490;4.912;2023-11-21T02:47:22;7.10;99.90
40123;DHT22;25832;45.490;4.912;2023-11-21T02:49:48;7.10;99.90
40123;DHT22;25832;45.490;4.912;2023-11-21T02:52:14;7.10;99.90
40123;DHT22;25832;45.490;4.912;2023-11-21T02:54:39;7.10;99.90
40123;DHT22;25832;45.490;4.912;2023-11-21T02:57:05;7.10;99.90
40123;DHT22;25832;45.490;4.912;2023-11-21T02:59:31;7.10;99.90
40123;DHT22;25832;45.490;4.912;2023-11-21T03:01:56;7.10;99.90
40123;DHT22;25832;45.490;4.912;2023-11-21T03:04:22;7.10;99.90
40123;DHT22;25832;45.490;4.912;2023-11-21T03:06:48;7.10;99.90
40123;DHT22;25832;45.490;4.912;2023-11-21T03:09:13;7.10;99.90
40123;DHT22;25832;45.490;4.912;2023-11-21T03:11:39;7.10;99.90
40123;DHT22;25832;45.490;4.912;2023-11-21T03:14:04;7.10;99.90
40123;DHT22;25832;45.490;4.912;2023-11-21T03:16:32;7.10;99.90
40123;DHT22;25832;45.490;4.912;2023-11-21T03:18:58;7.00;99.90
40123;DHT22;25832;45.490;4.912;2023-11-21T03:21:24;7.00;99.90
40123;DHT22;25832;45.490;4.912;2023-11-21T03:23:50;7.00;99.90
40123;DHT22;25832;45.490;4.912;2023-11-21T03:26:15;7.00;99.90
40123;DHT22;25832;45.490;4.912;2023-11-21T03:28:42;7.00;99.90
40123;DHT22;25832;45.490;4.912;2023-11-21T03:31:07;7.00;99.90
40123;DHT22;25832;45.490;4.912;2023-11-21T03:33:34;7.00;99.90
40123;DHT22;25832;45.490;4.912;2023-11-21T03:36:00;7.10;99.90
40123;DHT22;25832;45.490;4.912;2023-11-21T03:38:26;7.10;99.90
40123;DHT22;25832;45.490;4.912;2023-11-21T03:40:52;7.10;99.90
40123;DHT22;25832;45.490;4.912;2023-11-21T03:43:17;7.10;99.90
40123;DHT22;25832;45.490;4.912;2023-11-21T03:45:43;7.10;99.90
40123;DHT22;25832;45.490;4.912;2023-11-21T03:48:09;7.10;99.90
40123;DHT22;25832;45.490;4.912;2023-11-21T03:50:35;7.10;99.90
40123;DHT22;25832;45.490;4.912;2023-11-21T03:53:00;7.10;99.90
40123;DHT22;25832;45.490;4.912;2023-11-21T03:55:26;7.10;99.90
40123;DHT22;25832;45.490;4.912;2023-11-21T03:57:52;7.10;99.90
40123;DHT22;25832;45.490;4.912;2023-11-21T04:00:18;7.00;99.90
40123;DHT22;25832;45.490;4.912;2023-11-21T04:02:45;6.90;99.90
40123;DHT22;25832;45.490;4.912;2023-11-21T04:05:11;6.90;99.90
40123;DHT22;25832;45.490;4.912;2023-11-21T04:07:37;6.90;99.90
40123;DHT22;25832;45.490;4.912;2023-11-21T04:10:05;6.90;99.90
40123;DHT22;25832;45.490;4.912;2023-11-21T04:12:33;6.90;99.90
40123;DHT22;25832;45.490;4.912;2023-11-21T04:14:59;7.00;99.90
40123;DHT22;25832;45.490;4.912;2023-11-21T04:17:25;7.00;99.90
40123;DHT22;25832;45.490;4.912;2023-11-21T04:19:50;7.00;99.90
40123;DHT22;25832;45.490;4.912;2023-11-21T04:22:16;7.00;99.90
40123;DHT22;25832;45.490;4.912;2023-11-21T04:24:41;7.00;99.90
40123;DHT22;25832;45.490;4.912;2023-11-21T04:27:07;7.00;99.90
40123;DHT22;25832;45.490;4.912;2023-11-21T04:29:33;7.00;99.90
40123;DHT22;25832;45.490;4.912;2023-11-21T04:31:58;7.00;99.90
40123;DHT22;25832;45.490;4.912;2023-11-21T04:34:24;7.00;99.90
40123;DHT22;25832;45.490;4.912;2023-11-21T04:36:50;7.00;99.90
40123;DHT22;25832;45.490;4.912;2023-11-21T04:39:16;7.00;99.90
40123;DHT22;25832;45.490;4.912;2023-11-21T04:41:41;7.00;99.90
40123;DHT22;25832;45.490;4.912;2023-11-21T04:44:08;7.10;99.90
40123;DHT22;25832;45.490;4.912;2023-11-21T04:46:33;7.10;99.90
40123;DHT22;25832;45.490;4.912;2023-11-21T04:48:59;7.10;99.90
40123;DHT22;25832;45.490;4.912;2023-11-21T04:51:25;7.10;99.90
40123;DHT22;25832;45.490;4.912;2023-11-21T04:53:50;7.20;99.90
40123;DHT22;25832;45.490;4.912;2023-11-21T04:56:16;7.20;99.90
40123;DHT22;25832;45.490;4.912;2023-11-21T04:58:41;7.30;99.90
40123;DHT22;25832;45.490;4.912;2023-11-21T05:01:07;7.30;99.90
40123;DHT22;25832;45.490;4.912;2023-11-21T05:03:33;7.30;99.90
40123;DHT22;25832;45.490;4.912;2023-11-21T05:06:02;7.30;99.90
40123;DHT22;25832;45.490;4.912;2023-11-21T05:08:28;7.30;99.90
40123;DHT22;25832;45.490;4.912;2023-11-21T05:10:54;7.30;99.90
40123;DHT22;25832;45.490;4.912;2023-11-21T05:13:20;7.30;99.90
40123;DHT22;25832;45.490;4.912;2023-11-21T05:15:46;7.30;99.90
40123;DHT22;25832;45.490;4.912;2023-11-21T05:18:12;7.30;99.90
40123;DHT22;25832;45.490;4.912;2023-11-21T05:20:39;7.40;99.90
40123;DHT22;25832;45.490;4.912;2023-11-21T05:23:06;7.40;99.90
40123;DHT22;25832;45.490;4.912;2023-11-21T05:25:33;7.40;99.90
40123;DHT22;25832;45.490;4.912;2023-11-21T05:27:58;7.40;99.90
40123;DHT22;25832;45.490;4.912;2023-11-21T05:30:26;7.40;99.90
40123;DHT22;25832;45.490;4.912;2023-11-21T05:32:52;7.40;99.90
40123;DHT22;25832;45.490;4.912;2023-11-21T05:35:18;7.40;99.90
40123;DHT22;25832;45.490;4.912;2023-11-21T05:37:45;7.40;99.90
40123;DHT22;25832;45.490;4.912;2023-11-21T05:40:11;7.40;99.90
40123;DHT22;25832;45.490;4.912;2023-11-21T05:42:39;7.40;99.90
40123;DHT22;25832;45.490;4.912;2023-11-21T05:45:06;7.30;99.90
40123;DHT22;25832;45.490;4.912;2023-11-21T05:47:43;7.30;99.90
40123;DHT22;25832;45.490;4.912;2023-11-21T05:50:10;7.40;99.90
40123;DHT22;25832;45.490;4.912;2023-11-21T05:52:38;7.30;99.90
40123;DHT22;25832;45.490;4.912;2023-11-21T05:55:04;7.30;99.90
40123;DHT22;25832;45.490;4.912;2023-11-21T05:57:33;7.30;99.90
40123;DHT22;25832;45.490;4.912;2023-11-21T05:59:59;7.30;99.90
40123;DHT22;25832;45.490;4.912;2023-11-21T06:02:25;7.30;99.90
40123;DHT22;25832;45.490;4.912;2023-11-21T06:04:51;7.30;99.90
40123;DHT22;25832;45.490;4.912;2023-11-21T06:07:18;7.40;99.90
40123;DHT22;25832;45.490;4.912;2023-11-21T06:09:44;7.40;99.90
40123;DHT22;25832;45.490;4.912;2023-11-21T06:12:10;7.40;99.90
40123;DHT22;25832;45.490;4.912;2023-11-21T06:14:36;7.40;99.90
40123;DHT22;25832;45.490;4.912;2023-11-21T06:17:02;7.50;99.90
40123;DHT22;25832;45.490;4.912;2023-11-21T06:19:28;7.50;99.90
40123;DHT22;25832;45.490;4.912;2023-11-21T06:21:53;7.50;99.90
40123;DHT22;25832;45.490;4.912;2023-11-21T06:24:19;7.50;99.90
40123;DHT22;25832;45.490;4.912;2023-11-21T06:26:46;7.50;99.90
40123;DHT22;25832;45.490;4.912;2023-11-21T06:29:14;7.50;99.90
40123;DHT22;25832;45.490;4.912;2023-11-21T06:31:39;7.50;99.90
40123;DHT22;25832;45.490;4.912;2023-11-21T06:34:06;7.50;99.90
40123;DHT22;25832;45.490;4.912;2023-11-21T06:36:31;7.50;99.90
40123;DHT22;25832;45.490;4.912;2023-11-21T06:38:57;7.50;99.90
40123;DHT22;25832;45.490;4.912;2023-11-21T06:41:22;7.50;99.90
40123;DHT22;25832;45.490;4.912;2023-11-21T06:43:49;7.50;99.90
40123;DHT22;25832;45.490;4.912;2023-11-21T06:46:14;7.50;99.90
40123;DHT22;25832;45.490;4.912;2023-11-21T06:48:42;7.50;99.90
40123;DHT22;25832;45.490;4.912;2023-11-21T06:51:08;7.50;99.90
40123;DHT22;25832;45.490;4.912;2023-11-21T06:53:33;7.50;99.90
40123;DHT22;25832;45.490;4.912;2023-11-21T06:55:59;7.50;99.90
40123;DHT22;25832;45.490;4.912;2023-11-21T06:58:25;7.50;99.90
40123;DHT22;25832;45.490;4.912;2023-11-21T07:00:50;7.50;99.90
40123;DHT22;25832;45.490;4.912;2023-11-21T07:03:17;7.50;99.90
40123;DHT22;25832;45.490;4.912;2023-11-21T07:05:44;7.50;99.90
40123;DHT22;25832;45.490;4.912;2023-11-21T07:08:10;7.50;99.90
40123;DHT22;25832;45.490;4.912;2023-11-21T07:10:36;7.50;99.90
40123;DHT22;25832;45.490;4.912;2023-11-21T07:13:02;7.50;99.90
40123;DHT22;25832;45.490;4.912;2023-11-21T07:15:28;7.60;99.90
40123;DHT22;25832;45.490;4.912;2023-11-21T07:17:53;7.60;99.90
40123;DHT22;25832;45.490;4.912;2023-11-21T07:20:19;7.60;99.90
40123;DHT22;25832;45.490;4.912;2023-11-21T07:22:45;7.60;99.90
40123;DHT22;25832;45.490;4.912;2023-11-21T07:25:11;7.60;99.90
40123;DHT22;25832;45.490;4.912;2023-11-21T07:27:37;7.70;99.90
40123;DHT22;25832;45.490;4.912;2023-11-21T07:30:03;7.70;99.90
40123;DHT22;25832;45.490;4.912;2023-11-21T07:32:31;7.70;99.90
40123;DHT22;25832;45.490;4.912;2023-11-21T07:34:57;7.70;99.90
40123;DHT22;25832;45.490;4.912;2023-11-21T07:37:25;7.70;99.90
40123;DHT22;25832;45.490;4.912;2023-11-21T07:39:51;7.80;99.90
40123;DHT22;25832;45.490;4.912;2023-11-21T07:42:23;7.80;99.90
40123;DHT22;25832;45.490;4.912;2023-11-21T07:44:48;7.80;99.90
40123;DHT22;25832;45.490;4.912;2023-11-21T07:47:15;7.80;99.90
40123;DHT22;25832;45.490;4.912;2023-11-21T07:49:41;7.80;99.90
40123;DHT22;25832;45.490;4.912;2023-11-21T07:52:09;7.80;99.90
40123;DHT22;25832;45.490;4.912;2023-11-21T07:54:35;7.90;99.90
40123;DHT22;25832;45.490;4.912;2023-11-21T07:57:01;7.90;99.90
40123;DHT22;25832;45.490;4.912;2023-11-21T07:59:29;7.90;99.90
40123;DHT22;25832;45.490;4.912;2023-11-21T08:01:55;8.00;99.90
40123;DHT22;25832;45.490;4.912;2023-11-21T08:04:20;8.10;99.90
40123;DHT22;25832;45.490;4.912;2023-11-21T08:06:46;8.10;99.90
40123;DHT22;25832;45.490;4.912;2023-11-21T08:09:12;8.10;99.90
40123;DHT22;25832;45.490;4.912;2023-11-21T08:11:38;8.10;99.90
40123;DHT22;25832;45.490;4.912;2023-11-21T08:14:05;8.10;99.90
40123;DHT22;25832;45.490;4.912;2023-11-21T08:16:30;8.10;99.90
40123;DHT22;25832;45.490;4.912;2023-11-21T08:18:56;8.10;99.90
40123;DHT22;25832;45.490;4.912;2023-11-21T08:21:22;8.00;99.90
40123;DHT22;25832;45.490;4.912;2023-11-21T08:23:50;8.00;99.90
40123;DHT22;25832;45.490;4.912;2023-11-21T08:26:20;8.10;99.90
40123;DHT22;25832;45.490;4.912;2023-11-21T08:28:46;8.00;99.90
40123;DHT22;25832;45.490;4.912;2023-11-21T08:31:12;8.00;99.90
40123;DHT22;25832;45.490;4.912;2023-11-21T08:33:38;7.90;99.90
40123;DHT22;25832;45.490;4.912;2023-11-21T08:36:10;8.00;99.90
40123;DHT22;25832;45.490;4.912;2023-11-21T08:38:38;8.00;99.90
40123;DHT22;25832;45.490;4.912;2023-11-21T08:41:06;8.10;99.90
40123;DHT22;25832;45.490;4.912;2023-11-21T08:43:37;8.10;99.90
40123;DHT22;25832;45.490;4.912;2023-11-21T08:46:08;8.20;99.90
40123;DHT22;25832;45.490;4.912;2023-11-21T08:48:36;8.30;99.90
40123;DHT22;25832;45.490;4.912;2023-11-21T08:51:02;8.30;99.90
40123;DHT22;25832;45.490;4.912;2023-11-21T08:53:29;8.40;99.90
40123;DHT22;25832;45.490;4.912;2023-11-21T08:55:56;8.40;99.90
40123;DHT22;25832;45.490;4.912;2023-11-21T08:58:22;8.50;99.90
40123;DHT22;25832;45.490;4.912;2023-11-21T09:00:47;8.50;99.90
40123;DHT22;25832;45.490;4.912;2023-11-21T09:03:13;8.50;99.90
40123;DHT22;25832;45.490;4.912;2023-11-21T09:05:39;8.50;99.90
40123;DHT22;25832;45.490;4.912;2023-11-21T09:08:05;8.60;99.90
40123;DHT22;25832;45.490;4.912;2023-11-21T09:10:33;8.60;99.90
40123;DHT22;25832;45.490;4.912;2023-11-21T09:13:01;8.60;99.90
40123;DHT22;25832;45.490;4.912;2023-11-21T09:15:27;8.70;99.90
40123;DHT22;25832;45.490;4.912;2023-11-21T09:17:53;8.70;99.90
40123;DHT22;25832;45.490;4.912;2023-11-21T09:20:18;8.80;99.90
40123;DHT22;25832;45.490;4.912;2023-11-21T09:22:48;8.80;99.90
40123;DHT22;25832;45.490;4.912;2023-11-21T09:25:14;8.80;99.90
40123;DHT22;25832;45.490;4.912;2023-11-21T09:27:40;8.90;99.90
40123;DHT22;25832;45.490;4.912;2023-11-21T09:30:07;8.90;99.90
40123;DHT22;25832;45.490;4.912;2023-11-21T09:32:35;8.90;99.90
40123;DHT22;25832;45.490;4.912;2023-11-21T09:35:03;8.90;99.90
40123;DHT22;25832;45.490;4.912;2023-11-21T09:37:29;9.00;99.90
40123;DHT22;25832;45.490;4.912;2023-11-21T09:39:55;9.10;99.90
40123;DHT22;25832;45.490;4.912;2023-11-21T09:42:36;9.20;99.90
40123;DHT22;25832;45.490;4.912;2023-11-21T09:45:26;9.20;99.90
40123;DHT22;25832;45.490;4.912;2023-11-21T09:47:56;9.10;99.90
40123;DHT22;25832;45.490;4.912;2023-11-21T09:50:23;9.20;99.90
40123;DHT22;25832;45.490;4.912;2023-11-21T09:55:36;9.20;99.90
40123;DHT22;25832;45.490;4.912;2023-11-21T09:58:03;9.10;99.90
40123;DHT22;25832;45.490;4.912;2023-11-21T10:00:30;9.10;99.90
40123;DHT22;25832;45.490;4.912;2023-11-21T10:02:58;9.10;99.90
40123;DHT22;25832;45.490;4.912;2023-11-21T10:05:25;9.00;99.90
40123;DHT22;25832;45.490;4.912;2023-11-21T10:07:51;9.00;99.90
40123;DHT22;25832;45.490;4.912;2023-11-21T10:10:18;9.00;99.90
40123;DHT22;25832;45.490;4.912;2023-11-21T10:12:56;8.90;99.90
40123;DHT22;25832;45.490;4.912;2023-11-21T10:15:23;8.80;99.90
40123;DHT22;25832;45.490;4.912;2023-11-21T10:17:52;8.80;99.90
40123;DHT22;25832;45.490;4.912;2023-11-21T10:20:19;8.90;99.90
40123;DHT22;25832;45.490;4.912;2023-11-21T10:22:45;8.80;99.90
40123;DHT22;25832;45.490;4.912;2023-11-21T10:25:12;8.90;99.90
40123;DHT22;25832;45.490;4.912;2023-11-21T10:27:42;8.90;99.90
40123;DHT22;25832;45.490;4.912;2023-11-21T10:30:10;9.00;99.90
40123;DHT22;25832;45.490;4.912;2023-11-21T10:32:39;9.10;99.90
40123;DHT22;25832;45.490;4.912;2023-11-21T10:35:06;9.20;99.90
40123;DHT22;25832;45.490;4.912;2023-11-21T10:37:36;9.20;99.90
40123;DHT22;25832;45.490;4.912;2023-11-21T10:40:08;9.30;99.90
40123;DHT22;25832;45.490;4.912;2023-11-21T10:42:40;9.40;99.90
40123;DHT22;25832;45.490;4.912;2023-11-21T10:45:08;9.50;99.90
40123;DHT22;25832;45.490;4.912;2023-11-21T10:47:44;9.60;99.90
40123;DHT22;25832;45.490;4.912;2023-11-21T10:50:10;9.70;99.90
40123;DHT22;25832;45.490;4.912;2023-11-21T10:52:40;9.80;99.90
40123;DHT22;25832;45.490;4.912;2023-11-21T10:55:18;9.80;99.90
40123;DHT22;25832;45.490;4.912;2023-11-21T10:57:48;9.80;99.90
40123;DHT22;25832;45.490;4.912;2023-11-21T11:00:16;9.80;99.90
40123;DHT22;25832;45.490;4.912;2023-11-21T11:02:44;9.80;99.90
40123;DHT22;25832;45.490;4.912;2023-11-21T11:05:14;9.90;99.90
40123;DHT22;25832;45.490;4.912;2023-11-21T11:07:43;9.80;99.90
40123;DHT22;25832;45.490;4.912;2023-11-21T11:10:10;9.90;99.90
40123;DHT22;25832;45.490;4.912;2023-11-21T11:12:43;9.90;99.90
40123;DHT22;25832;45.490;4.912;2023-11-21T11:15:11;9.90;99.90
40123;DHT22;25832;45.490;4.912;2023-11-21T11:17:37;10.10;99.90
40123;DHT22;25832;45.490;4.912;2023-11-21T11:20:09;10.20;99.90
40123;DHT22;25832;45.490;4.912;2023-11-21T11:30:39;10.50;99.90
40123;DHT22;25832;45.490;4.912;2023-11-21T11:33:13;10.40;99.90
40123;DHT22;25832;45.490;4.912;2023-11-21T11:35:49;10.30;99.90
40123;DHT22;25832;45.490;4.912;2023-11-21T11:38:21;10.20;99.90
40123;DHT22;25832;45.490;4.912;2023-11-21T11:40:48;10.20;99.90
40123;DHT22;25832;45.490;4.912;2023-11-21T11:43:13;10.20;99.90
40123;DHT22;25832;45.490;4.912;2023-11-21T11:45:49;10.40;99.90
40123;DHT22;25832;45.490;4.912;2023-11-21T11:48:17;10.60;99.90
40123;DHT22;25832;45.490;4.912;2023-11-21T11:51:13;10.70;99.90
40123;DHT22;25832;45.490;4.912;2023-11-21T11:53:45;10.70;99.90
40123;DHT22;25832;45.490;4.912;2023-11-21T11:58:57;10.60;99.90
40123;DHT22;25832;45.490;4.912;2023-11-21T12:01:25;10.70;99.90
40123;DHT22;25832;45.490;4.912;2023-11-21T12:06:36;10.50;99.90
40123;DHT22;25832;45.490;4.912;2023-11-21T12:09:02;10.40;99.90
40123;DHT22;25832;45.490;4.912;2023-11-21T12:11:33;10.40;99.90
40123;DHT22;25832;45.490;4.912;2023-11-21T12:14:01;10.30;99.90
40123;DHT22;25832;45.490;4.912;2023-11-21T12:16:27;10.20;99.90
40123;DHT22;25832;45.490;4.912;2023-11-21T12:18:53;10.10;99.90
40123;DHT22;25832;45.490;4.912;2023-11-21T12:21:22;10.00;99.90
40123;DHT22;25832;45.490;4.912;2023-11-21T12:23:48;9.90;99.90
40123;DHT22;25832;45.490;4.912;2023-11-21T12:26:14;9.90;99.90
40123;DHT22;25832;45.490;4.912;2023-11-21T12:28:40;9.90;99.90
40123;DHT22;25832;45.490;4.912;2023-11-21T12:31:06;9.80;99.90
40123;DHT22;25832;45.490;4.912;2023-11-21T12:33:33;9.80;99.90
40123;DHT22;25832;45.490;4.912;2023-11-21T12:35:58;9.80;99.90
40123;DHT22;25832;45.490;4.912;2023-11-21T12:38:24;9.90;99.90
40123;DHT22;25832;45.490;4.912;2023-11-21T12:40:50;10.00;99.90
40123;DHT22;25832;45.490;4.912;2023-11-21T12:43:17;10.00;99.90
40123;DHT22;25832;45.490;4.912;2023-11-21T12:45:43;10.10;99.90
40123;DHT22;25832;45.490;4.912;2023-11-21T12:48:09;10.10;99.90
40123;DHT22;25832;45.490;4.912;2023-11-21T12:50:37;10.10;99.90
40123;DHT22;25832;45.490;4.912;2023-11-21T12:53:11;10.00;99.90
40123;DHT22;25832;45.490;4.912;2023-11-21T12:55:43;10.10;99.90
40123;DHT22;25832;45.490;4.912;2023-11-21T12:58:15;10.10;99.90
40123;DHT22;25832;45.490;4.912;2023-11-21T13:00:47;10.10;99.90
40123;DHT22;25832;45.490;4.912;2023-11-21T13:03:14;10.10;99.90
40123;DHT22;25832;45.490;4.912;2023-11-21T13:05:48;10.20;99.90
40123;DHT22;25832;45.490;4.912;2023-11-21T13:08:20;10.20;99.90
40123;DHT22;25832;45.490;4.912;2023-11-21T13:10:52;10.20;99.90
40123;DHT22;25832;45.490;4.912;2023-11-21T13:13:19;10.10;99.90
40123;DHT22;25832;45.490;4.912;2023-11-21T13:15:56;10.10;99.90
40123;DHT22;25832;45.490;4.912;2023-11-21T13:18:23;10.10;99.90
40123;DHT22;25832;45.490;4.912;2023-11-21T13:20:50;10.10;99.90
40123;DHT22;25832;45.490;4.912;2023-11-21T13:23:15;10.10;99.90
40123;DHT22;25832;45.490;4.912;2023-11-21T13:25:42;10.20;99.90
40123;DHT22;25832;45.490;4.912;2023-11-21T13:28:11;10.20;99.90
40123;DHT22;25832;45.490;4.912;2023-11-21T13:30:37;10.30;99.90
40123;DHT22;25832;45.490;4.912;2023-11-21T13:33:04;10.40;99.90
40123;DHT22;25832;45.490;4.912;2023-11-21T13:35:33;10.50;99.90
40123;DHT22;25832;45.490;4.912;2023-11-21T13:38:07;10.60;99.90
40123;DHT22;25832;45.490;4.912;2023-11-21T13:40:34;10.70;99.90
40123;DHT22;25832;45.490;4.912;2023-11-21T13:43:09;10.70;99.90
40123;DHT22;25832;45.490;4.912;2023-11-21T13:45:42;10.80;99.90
40123;DHT22;25832;45.490;4.912;2023-11-21T13:48:09;10.80;99.90
40123;DHT22;25832;45.490;4.912;2023-11-21T13:50:43;10.80;99.90
40123;DHT22;25832;45.490;4.912;2023-11-21T13:53:23;10.70;99.90
40123;DHT22;25832;45.490;4.912;2023-11-21T13:55:50;10.50;99.90
40123;DHT22;25832;45.490;4.912;2023-11-21T13:58:17;10.40;99.90
40123;DHT22;25832;45.490;4.912;2023-11-21T14:00:49;10.30;99.90
40123;DHT22;25832;45.490;4.912;2023-11-21T14:03:24;10.20;99.90
40123;DHT22;25832;45.490;4.912;2023-11-21T14:05:58;10.10;99.90
40123;DHT22;25832;45.490;4.912;2023-11-21T14:08:26;10.00;99.90
40123;DHT22;25832;45.490;4.912;2023-11-21T14:10:57;10.00;99.90
40123;DHT22;25832;45.490;4.912;2023-11-21T14:13:26;10.00;99.90
40123;DHT22;25832;45.490;4.912;2023-11-21T14:15:51;10.00;99.90
40123;DHT22;25832;45.490;4.912;2023-11-21T14:18:23;10.00;99.90
40123;DHT22;25832;45.490;4.912;2023-11-21T14:20:56;10.00;99.90
40123;DHT22;25832;45.490;4.912;2023-11-21T14:23:22;10.00;99.90
40123;DHT22;25832;45.490;4.912;2023-11-21T14:25:49;9.90;99.90
40123;DHT22;25832;45.490;4.912;2023-11-21T14:28:15;9.70;99.90
40123;DHT22;25832;45.490;4.912;2023-11-21T14:30:41;9.60;99.90
40123;DHT22;25832;45.490;4.912;2023-11-21T14:33:08;9.40;99.90
40123;DHT22;25832;45.490;4.912;2023-11-21T14:35:35;9.40;99.90
40123;DHT22;25832;45.490;4.912;2023-11-21T14:38:01;9.30;99.90
40123;DHT22;25832;45.490;4.912;2023-11-21T14:40:33;9.20;99.90
40123;DHT22;25832;45.490;4.912;2023-11-21T14:43:04;9.10;99.90
40123;DHT22;25832;45.490;4.912;2023-11-21T14:45:31;9.10;99.90
40123;DHT22;25832;45.490;4.912;2023-11-21T14:47:57;9.10;99.90
40123;DHT22;25832;45.490;4.912;2023-11-21T14:50:32;9.10;99.90
40123;DHT22;25832;45.490;4.912;2023-11-21T14:53:08;9.10;99.90
40123;DHT22;25832;45.490;4.912;2023-11-21T14:55:35;9.10;99.90
40123;DHT22;25832;45.490;4.912;2023-11-21T14:58:19;9.10;99.90
40123;DHT22;25832;45.490;4.912;2023-11-21T15:00:57;9.10;99.90
40123;DHT22;25832;45.490;4.912;2023-11-21T15:03:28;9.10;99.90
40123;DHT22;25832;45.490;4.912;2023-11-21T15:05:57;9.10;99.90
40123;DHT22;25832;45.490;4.912;2023-11-21T15:08:23;9.10;99.90
40123;DHT22;25832;45.490;4.912;2023-11-21T15:10:57;9.10;99.90
40123;DHT22;25832;45.490;4.912;2023-11-21T15:13:23;9.10;99.90
40123;DHT22;25832;45.490;4.912;2023-11-21T15:15:51;9.10;99.90
40123;DHT22;25832;45.490;4.912;2023-11-21T15:18:20;9.10;99.90
40123;DHT22;25832;45.490;4.912;2023-11-21T15:20:46;9.10;99.90
40123;DHT22;25832;45.490;4.912;2023-11-21T15:23:11;9.00;99.90
40123;DHT22;25832;45.490;4.912;2023-11-21T15:25:42;9.00;99.90
40123;DHT22;25832;45.490;4.912;2023-11-21T15:28:07;9.00;99.90
40123;DHT22;25832;45.490;4.912;2023-11-21T15:30:33;9.00;99.90
40123;DHT22;25832;45.490;4.912;2023-11-21T15:33:00;9.00;99.90
40123;DHT22;25832;45.490;4.912;2023-11-21T15:35:26;8.90;99.90
40123;DHT22;25832;45.490;4.912;2023-11-21T15:37:54;8.90;99.90
40123;DHT22;25832;45.490;4.912;2023-11-21T15:40:23;8.90;99.90
40123;DHT22;25832;45.490;4.912;2023-11-21T15:42:48;8.90;99.90
40123;DHT22;25832;45.490;4.912;2023-11-21T15:45:15;8.90;99.90
40123;DHT22;25832;45.490;4.912;2023-11-21T15:47:44;8.90;99.90
40123;DHT22;25832;45.490;4.912;2023-11-21T15:50:09;8.90;99.90
40123;DHT22;25832;45.490;4.912;2023-11-21T15:52:36;8.90;99.90
40123;DHT22;25832;45.490;4.912;2023-11-21T15:55:02;8.90;99.90
40123;DHT22;25832;45.490;4.912;2023-11-21T15:57:28;9.00;99.90
40123;DHT22;25832;45.490;4.912;2023-11-21T15:59:54;8.90;99.90